Time;durP1;ratioP1;P1;durP2;ratioP2;P2;SDS_P1;SDS_P2;PMS_P1;PMS_P2;Temp;Humidity;BMP_temperature;BMP_pressure;BME280_temperature;BME280_humidity;BME280_pressure;Samples;Min_cycle;Max_cycle;Signal;HPM_P1;HPM_P2
2022/04/25 00:02:13;;;;;;;18.35;13.10;;;9.60;99.90;;;;;;5026754;28;20052;-59
2022/04/25 00:04:39;;;;;;;13.88;11.32;;;9.70;99.90;;;;;;5027223;28;20391;-59
2022/04/25 00:07:04;;;;;;;15.30;12.50;;;9.70;99.90;;;;;;5027340;28;20423;-59
2022/04/25 00:09:30;;;;;;;18.27;12.57;;;9.70;99.90;;;;;;5030551;28;20030;-58
2022/04/25 00:11:56;;;;;;;14.93;12.00;;;9.70;99.90;;;;;;5027803;28;20053;-59
2022/04/25 00:14:21;;;;;;;16.35;12.18;;;9.60;99.90;;;;;;5029559;28;20052;-59
2022/04/25 00:16:47;;;;;;;15.57;12.05;;;9.60;99.90;;;;;;5028105;28;20040;-58
2022/04/25 00:19:12;;;;;;;14.82;11.07;;;9.50;99.90;;;;;;5026759;28;20689;-58
2022/04/25 00:21:38;;;;;;;16.60;11.90;;;9.40;99.90;;;;;;5025683;28;20111;-57
2022/04/25 00:24:04;;;;;;;15.00;11.45;;;9.30;99.90;;;;;;5029957;28;20095;-58
2022/04/25 00:26:29;;;;;;;12.90;10.30;;;9.30;99.90;;;;;;5030063;28;20061;-56
2022/04/25 00:28:55;;;;;;;15.85;11.10;;;9.30;99.90;;;;;;5023550;28;20037;-49
2022/04/25 00:31:20;;;;;;;14.15;11.75;;;9.20;99.90;;;;;;5030816;28;20026;-58
2022/04/25 00:33:46;;;;;;;15.77;11.10;;;9.20;99.90;;;;;;5027736;28;20511;-58
2022/04/25 00:36:12;;;;;;;13.00;10.75;;;9.10;99.90;;;;;;5030637;28;20475;-58
2022/04/25 00:38:37;;;;;;;14.77;11.82;;;9.10;99.90;;;;;;5023045;28;20474;-57
2022/04/25 00:41:06;;;;;;;14.98;11.55;;;9.20;99.90;;;;;;5023342;28;20030;-59
2022/04/25 00:43:31;;;;;;;13.77;10.95;;;9.20;99.90;;;;;;5029034;28;20037;-57
2022/04/25 00:45:57;;;;;;;13.45;10.75;;;9.10;99.90;;;;;;5027258;28;20037;-57
2022/04/25 00:48:22;;;;;;;14.50;10.68;;;9.10;99.90;;;;;;5030196;28;20034;-57
2022/04/25 00:50:48;;;;;;;15.25;10.27;;;9.10;99.90;;;;;;5026123;28;20037;-59
2022/04/25 00:53:13;;;;;;;10.90;9.15;;;9.20;99.90;;;;;;5031340;28;20025;-59
2022/04/25 00:55:39;;;;;;;14.15;10.73;;;9.20;99.90;;;;;;5030732;28;20041;-56
2022/04/25 00:58:05;;;;;;;14.50;10.35;;;9.30;99.90;;;;;;5030570;28;20036;-56
2022/04/25 01:00:32;;;;;;;12.02;9.52;;;9.20;99.90;;;;;;5031450;28;20033;-56
2022/04/25 01:02:57;;;;;;;15.68;10.05;;;9.20;99.90;;;;;;5027700;28;20029;-57
2022/04/25 01:05:23;;;;;;;13.38;9.40;;;9.00;99.90;;;;;;5030346;28;20104;-57
2022/04/25 01:07:49;;;;;;;11.18;9.25;;;9.00;99.90;;;;;;5025901;28;20037;-57
2022/04/25 01:10:14;;;;;;;13.50;9.48;;;9.00;99.90;;;;;;5027308;28;20033;-56
2022/04/25 01:12:40;;;;;;;13.95;9.85;;;9.00;99.90;;;;;;5030385;28;20041;-59
2022/04/25 01:15:08;;;;;;;13.13;10.00;;;9.00;99.90;;;;;;5031015;28;20046;-58
2022/04/25 01:17:34;;;;;;;11.93;9.60;;;9.00;99.90;;;;;;5024745;28;20033;-57
2022/04/25 01:19:59;;;;;;;11.95;9.13;;;9.00;99.90;;;;;;5021175;28;20033;-57
2022/04/25 01:22:32;;;;;;;10.32;8.15;;;9.00;99.90;;;;;;5019774;28;20384;-55
2022/04/25 01:27:43;;;;;;;9.75;7.28;;;8.90;99.90;;;;;;5024791;28;20079;-59
2022/04/25 01:30:09;;;;;;;10.40;6.93;;;8.60;99.90;;;;;;5030286;28;20029;-57
2022/04/25 01:32:36;;;;;;;8.98;6.18;;;8.30;99.90;;;;;;5027169;28;20037;-57
2022/04/25 01:35:01;;;;;;;12.20;6.82;;;8.30;99.90;;;;;;5024439;28;20094;-58
2022/04/25 01:37:27;;;;;;;8.65;6.00;;;8.10;99.90;;;;;;5029274;28;20053;-59
2022/04/25 01:39:54;;;;;;;7.82;5.68;;;8.00;99.90;;;;;;5025686;28;20028;-59
2022/04/25 01:42:22;;;;;;;6.40;4.78;;;7.90;99.90;;;;;;5022636;28;20040;-57
2022/04/25 01:44:48;;;;;;;6.78;5.13;;;7.70;99.90;;;;;;5024522;28;20040;-57
2022/04/25 01:47:14;;;;;;;7.60;4.75;;;7.60;99.90;;;;;;5018906;28;20030;-57
2022/04/25 01:49:40;;;;;;;9.40;4.63;;;7.50;99.90;;;;;;5024892;28;20386;-54
2022/04/25 01:52:44;;;;;;;7.85;5.60;;;7.50;99.90;;;;;;5016996;28;20034;-58
2022/04/25 01:55:10;;;;;;;6.80;5.38;;;7.40;99.90;;;;;;4992629;28;20034;-58
2022/04/25 01:57:36;;;;;;;9.00;6.10;;;7.30;99.90;;;;;;4988451;28;20034;-58
2022/04/25 02:00:01;;;;;;;10.98;5.97;;;7.30;99.90;;;;;;5001791;28;20051;-58
2022/04/25 02:02:27;;;;;;;15.65;5.85;;;7.20;99.90;;;;;;5031484;28;20057;-58
2022/04/25 02:04:52;;;;;;;10.27;6.13;;;7.20;99.90;;;;;;5024461;28;20057;-58
2022/04/25 02:07:18;;;;;;;9.27;6.20;;;7.20;99.90;;;;;;5026960;28;20017;-60
2022/04/25 02:09:43;;;;;;;12.00;6.57;;;7.10;99.90;;;;;;5029487;28;20061;-58
2022/04/25 02:12:09;;;;;;;10.38;6.63;;;7.10;99.90;;;;;;5027163;28;20065;-59
2022/04/25 02:14:35;;;;;;;8.48;5.63;;;7.00;99.90;;;;;;5028787;28;20108;-54
2022/04/25 02:17:01;;;;;;;9.27;6.70;;;7.00;99.90;;;;;;5029359;28;20030;-57
2022/04/25 02:19:28;;;;;;;12.60;7.15;;;7.00;99.90;;;;;;5026970;28;20025;-59
2022/04/25 02:21:54;;;;;;;14.73;7.45;;;6.90;99.90;;;;;;5025655;28;20071;-58
2022/04/25 02:24:20;;;;;;;16.13;7.90;;;6.90;99.90;;;;;;5029438;28;20029;-59
2022/04/25 02:26:46;;;;;;;12.68;8.00;;;6.90;99.90;;;;;;5044264;28;20531;-58
2022/04/25 02:29:12;;;;;;;10.70;8.02;;;6.90;99.90;;;;;;5027478;28;20851;-57
2022/04/25 02:31:37;;;;;;;13.27;8.63;;;6.90;99.90;;;;;;5023228;28;20075;-57
2022/04/25 02:34:03;;;;;;;13.30;8.38;;;7.00;99.90;;;;;;5029164;28;20028;-55
2022/04/25 02:36:28;;;;;;;14.55;9.30;;;7.00;99.90;;;;;;5020244;28;20395;-57
2022/04/25 02:38:54;;;;;;;12.20;8.95;;;6.90;99.90;;;;;;5029793;28;20032;-60
2022/04/25 02:41:19;;;;;;;17.13;10.55;;;6.90;99.90;;;;;;5029826;28;20037;-58
2022/04/25 02:43:45;;;;;;;15.35;9.45;;;6.90;99.90;;;;;;5024836;28;20041;-58
2022/04/25 02:46:13;;;;;;;10.95;7.40;;;6.90;99.90;;;;;;5025681;28;20041;-58
2022/04/25 02:48:40;;;;;;;11.02;7.68;;;6.90;99.90;;;;;;5018769;28;20036;-60
2022/04/25 02:51:07;;;;;;;10.10;6.40;;;6.80;99.90;;;;;;5017851;28;20193;-59
2022/04/25 02:53:34;;;;;;;12.32;6.60;;;6.80;99.90;;;;;;5029200;28;20036;-58
2022/04/25 02:56:00;;;;;;;11.00;6.90;;;6.80;99.90;;;;;;5024265;28;20083;-60
2022/04/25 02:58:26;;;;;;;10.50;6.38;;;6.70;99.90;;;;;;5028887;28;20073;-59
2022/04/25 03:00:52;;;;;;;10.88;6.20;;;6.70;99.90;;;;;;5029990;28;20030;-57
2022/04/25 03:03:19;;;;;;;12.65;7.47;;;6.60;99.90;;;;;;5016987;28;20402;-60
2022/04/25 03:05:47;;;;;;;10.57;8.05;;;6.60;99.90;;;;;;5028814;28;20034;-59
2022/04/25 03:08:15;;;;;;;9.27;6.15;;;6.60;99.90;;;;;;5017243;28;20056;-55
2022/04/25 03:10:42;;;;;;;9.95;6.50;;;6.60;99.90;;;;;;5021879;28;20057;-59
2022/04/25 03:13:09;;;;;;;10.07;7.45;;;6.50;99.90;;;;;;5027647;28;20107;-57
2022/04/25 03:15:38;;;;;;;11.85;7.32;;;6.50;99.90;;;;;;5025771;28;20061;-58
2022/04/25 03:18:04;;;;;;;11.30;7.60;;;6.40;99.90;;;;;;5010515;28;20024;-54
2022/04/25 03:20:31;;;;;;;10.30;8.18;;;6.40;99.90;;;;;;5026478;28;20108;-57
2022/04/25 03:22:58;;;;;;;10.10;7.63;;;6.40;99.90;;;;;;5023414;28;20033;-58
2022/04/25 03:25:24;;;;;;;12.10;8.30;;;6.30;99.90;;;;;;5027236;28;20088;-58
2022/04/25 03:27:49;;;;;;;10.60;7.63;;;6.30;99.90;;;;;;5027750;28;20037;-57
2022/04/25 03:30:15;;;;;;;11.27;7.65;;;6.30;99.90;;;;;;5027426;28;20505;-57
2022/04/25 03:32:47;;;;;;;11.55;7.28;;;6.30;99.90;;;;;;5026068;28;20061;-58
2022/04/25 03:35:14;;;;;;;13.88;8.35;;;6.20;99.90;;;;;;5025326;28;20104;-54
2022/04/25 03:37:40;;;;;;;12.43;8.25;;;6.20;99.90;;;;;;5026782;28;20061;-59
2022/04/25 03:40:06;;;;;;;16.08;9.20;;;6.20;99.90;;;;;;5026970;28;20033;-60
2022/04/25 03:42:34;;;;;;;17.27;9.43;;;6.10;99.90;;;;;;5027378;28;20042;-58
2022/04/25 03:45:00;;;;;;;15.38;9.45;;;6.10;99.90;;;;;;5027477;28;20030;-57
2022/04/25 03:47:26;;;;;;;13.55;8.98;;;6.10;99.90;;;;;;5030171;28;20513;-58
2022/04/25 03:49:52;;;;;;;14.20;9.05;;;6.10;99.90;;;;;;5025626;28;20033;-59
2022/04/25 03:52:18;;;;;;;13.93;9.20;;;6.10;99.90;;;;;;5039283;23;20064;-58
2022/04/25 03:57:27;;;;;;;14.82;9.40;;;6.00;99.90;;;;;;5006882;28;20079;-58
2022/04/25 03:59:53;;;;;;;19.33;10.18;;;6.00;99.90;;;;;;5013051;28;20042;-59
2022/04/25 04:02:19;;;;;;;17.70;10.65;;;6.00;99.90;;;;;;5013298;28;20187;-59
2022/04/25 04:04:44;;;;;;;21.50;10.70;;;6.00;99.90;;;;;;5011978;28;20029;-57
2022/04/25 04:07:10;;;;;;;15.35;9.90;;;6.00;99.90;;;;;;5013316;28;20033;-58
2022/04/25 04:09:45;;;;;;;16.98;10.88;;;6.00;99.90;;;;;;5008838;28;20033;-56
2022/04/25 04:12:11;;;;;;;20.58;12.57;;;6.00;99.90;;;;;;5011692;28;20049;-58
2022/04/25 04:14:37;;;;;;;16.45;11.13;;;6.00;99.90;;;;;;5012320;28;20030;-57
2022/04/25 04:17:08;;;;;;;16.98;10.73;;;6.00;99.90;;;;;;5012240;28;20033;-58
2022/04/25 04:19:35;;;;;;;22.10;12.77;;;6.00;99.90;;;;;;5013083;28;20022;-57
2022/04/25 04:22:02;;;;;;;21.77;13.07;;;6.00;99.90;;;;;;5014334;28;20133;-56
2022/04/25 04:24:28;;;;;;;25.70;13.85;;;6.10;99.90;;;;;;5012807;28;20380;-54
2022/04/25 04:26:55;;;;;;;24.40;15.32;;;6.10;99.90;;;;;;5012003;28;20029;-57
2022/04/25 04:29:21;;;;;;;24.05;14.88;;;6.10;99.90;;;;;;5012670;28;20029;-57
2022/04/25 04:31:46;;;;;;;29.42;15.73;;;6.20;99.90;;;;;;5012967;28;20111;-58
2022/04/25 04:34:12;;;;;;;28.45;15.88;;;6.20;99.90;;;;;;5011698;28;20566;-57
2022/04/25 04:36:38;;;;;;;25.83;15.25;;;6.30;99.90;;;;;;5010670;28;20030;-56
2022/04/25 04:39:04;;;;;;;24.85;16.33;;;6.30;99.90;;;;;;5012474;28;20034;-59
2022/04/25 04:41:30;;;;;;;30.30;15.80;;;6.40;99.90;;;;;;5012250;28;20510;-57
2022/04/25 04:43:58;;;;;;;24.42;13.77;;;6.50;99.90;;;;;;5013200;28;20038;-58
2022/04/25 04:46:24;;;;;;;21.80;13.50;;;6.50;99.90;;;;;;5010101;28;20096;-54
2022/04/25 04:48:50;;;;;;;20.17;13.02;;;6.60;99.90;;;;;;5007288;28;20450;-58
2022/04/25 04:51:16;;;;;;;22.60;13.93;;;6.60;99.90;;;;;;5010805;28;20037;-58
2022/04/25 04:53:41;;;;;;;24.13;13.55;;;6.70;99.90;;;;;;5011600;28;20060;-58
2022/04/25 04:56:07;;;;;;;19.15;13.50;;;6.80;99.90;;;;;;5011797;28;20079;-58
2022/04/25 04:58:32;;;;;;;21.70;13.07;;;6.90;99.90;;;;;;5012603;28;20050;-58
2022/04/25 05:00:59;;;;;;;19.42;11.57;;;6.90;99.90;;;;;;5012137;28;20112;-57
2022/04/25 05:03:25;;;;;;;20.92;10.93;;;7.00;99.90;;;;;;5011915;28;20025;-59
2022/04/25 05:05:52;;;;;;;16.25;11.82;;;7.00;99.90;;;;;;5007305;28;20084;-57
2022/04/25 05:08:18;;;;;;;16.05;11.38;;;6.90;99.90;;;;;;5011539;28;20475;-57
2022/04/25 05:10:43;;;;;;;17.00;11.18;;;6.90;99.90;;;;;;5011215;28;20145;-59
2022/04/25 05:13:09;;;;;;;80.43;13.95;;;6.80;99.90;;;;;;5012747;28;20053;-57
2022/04/25 05:15:37;;;;;;;22.23;12.15;;;6.80;99.90;;;;;;5010998;28;20407;-58
2022/04/25 05:18:02;;;;;;;24.92;12.57;;;6.80;99.90;;;;;;5012031;28;20479;-58
2022/04/25 05:20:29;;;;;;;16.67;11.90;;;6.80;99.90;;;;;;5010729;28;20032;-54
2022/04/25 05:22:55;;;;;;;20.40;12.73;;;6.80;99.90;;;;;;5012042;28;20111;-59
2022/04/25 05:25:22;;;;;;;17.83;12.15;;;6.80;99.90;;;;;;5011177;28;20930;-56
2022/04/25 05:27:55;;;;;;;17.75;12.48;;;6.80;99.90;;;;;;5011338;28;20034;-57
2022/04/25 05:30:23;;;;;;;18.20;12.25;;;6.90;99.90;;;;;;5009159;28;20022;-58
2022/04/25 05:32:50;;;;;;;19.13;12.90;;;7.00;99.90;;;;;;5006416;28;20030;-54
2022/04/25 05:35:19;;;;;;;15.43;10.23;;;7.00;99.90;;;;;;5006723;28;20030;-57
2022/04/25 05:37:46;;;;;;;17.33;11.18;;;7.10;99.90;;;;;;5011490;28;20032;-57
2022/04/25 05:40:16;;;;;;;17.02;11.38;;;7.10;99.90;;;;;;5011088;28;20125;-58
2022/04/25 05:42:43;;;;;;;15.93;10.77;;;7.10;99.90;;;;;;5010721;28;20037;-57
2022/04/25 05:45:10;;;;;;;14.75;10.82;;;7.20;99.90;;;;;;5011423;28;20022;-57
2022/04/25 05:47:37;;;;;;;15.75;10.10;;;7.30;99.90;;;;;;5004574;28;20037;-53
2022/04/25 05:52:48;;;;;;;15.00;10.38;;;7.70;99.90;;;;;;5005036;28;20104;-58
2022/04/25 05:55:13;;;;;;;11.75;8.18;;;8.00;99.90;;;;;;5011186;28;20033;-58
2022/04/25 05:57:40;;;;;;;8.70;6.70;;;8.70;99.90;;;;;;5010138;28;20026;-57
2022/04/25 06:00:07;;;;;;;8.77;5.72;;;9.20;99.90;;;;;;5009259;28;20118;-56
2022/04/25 06:02:37;;;;;;;8.43;5.78;;;9.50;99.90;;;;;;5009771;28;20109;-57
2022/04/25 06:05:03;;;;;;;6.80;4.90;;;9.80;99.90;;;;;;5007008;28;20036;-59
2022/04/25 06:07:28;;;;;;;9.90;4.75;;;10.80;99.90;;;;;;5010979;28;20025;-54
2022/04/25 06:09:54;;;;;;;5.07;4.57;;;12.10;99.90;;;;;;5010173;28;20034;-56
2022/04/25 06:12:19;;;;;;;5.07;4.35;;;13.30;99.90;;;;;;5009904;28;20057;-56
2022/04/25 06:14:46;;;;;;;5.30;4.50;;;14.10;99.90;;;;;;5006776;28;20061;-56
2022/04/25 06:17:15;;;;;;;4.63;4.22;;;14.30;99.90;;;;;;5011171;28;20064;-55
2022/04/25 06:19:42;;;;;;;4.82;4.00;;;14.00;99.90;;;;;;5010139;28;20083;-57
2022/04/25 06:22:09;;;;;;;6.10;4.10;;;13.20;99.90;;;;;;5010256;28;20026;-57
2022/04/25 06:24:35;;;;;;;6.45;4.63;;;12.50;99.90;;;;;;5011201;28;20390;-56
2022/04/25 06:27:02;;;;;;;5.63;4.55;;;12.30;99.90;;;;;;5010038;28;20037;-56
2022/04/25 06:29:29;;;;;;;7.82;5.00;;;11.80;99.90;;;;;;5010999;28;20026;-56
2022/04/25 06:31:55;;;;;;;5.47;4.28;;;11.60;99.90;;;;;;5005928;28;20030;-55
2022/04/25 06:34:20;;;;;;;6.80;4.97;;;11.40;99.90;;;;;;5005244;28;20498;-55
2022/04/25 06:36:46;;;;;;;5.18;4.35;;;10.80;99.90;;;;;;5007526;28;20034;-54
2022/04/25 06:39:11;;;;;;;7.85;5.00;;;10.50;99.90;;;;;;5010828;28;20033;-54
2022/04/25 06:41:37;;;;;;;5.75;4.80;;;10.10;99.90;;;;;;5010250;28;20112;-55
2022/04/25 06:44:02;;;;;;;8.68;5.00;;;10.00;99.90;;;;;;5014419;28;20084;-58
2022/04/25 06:46:29;;;;;;;6.80;5.13;;;9.70;99.90;;;;;;5011453;28;20059;-50
2022/04/25 06:51:39;;;;;;;8.45;6.15;;;9.30;99.90;;;;;;5010448;28;20127;-52
2022/04/25 06:54:06;;;;;;;6.65;5.38;;;9.20;99.90;;;;;;5018817;28;20061;-55
2022/04/25 06:56:32;;;;;;;7.95;5.30;;;9.30;99.90;;;;;;5022321;28;20036;-55
2022/04/25 06:58:57;;;;;;;9.45;5.68;;;9.30;99.90;;;;;;5015355;28;20483;-57
2022/04/25 07:01:23;;;;;;;7.63;5.90;;;9.30;99.90;;;;;;4992199;28;20133;-55
2022/04/25 07:03:48;;;;;;;9.65;5.88;;;9.30;99.90;;;;;;5008355;28;20040;-53
2022/04/25 07:06:14;;;;;;;6.43;4.85;;;9.40;99.90;;;;;;5007670;28;20042;-54
2022/04/25 07:08:39;;;;;;;8.98;5.22;;;9.60;99.90;;;;;;5007941;28;20022;-56
2022/04/25 07:11:05;;;;;;;7.10;4.70;;;9.90;99.90;;;;;;5009690;28;20030;-56
2022/04/25 07:13:30;;;;;;;6.55;4.50;;;10.20;99.90;;;;;;5009264;28;20041;-55
2022/04/25 07:15:56;;;;;;;5.57;4.78;;;10.40;99.90;;;;;;5005673;28;20099;-57
2022/04/25 07:18:21;;;;;;;5.15;4.20;;;10.70;99.90;;;;;;5015812;28;20021;-55
2022/04/25 07:20:47;;;;;;;5.45;4.25;;;11.00;99.90;;;;;;5021378;28;20034;-56
2022/04/25 07:28:51;;;;;;;4.68;3.70;;;12.20;99.90;;;;;;5021504;28;19971;-56
2022/04/25 07:31:17;;;;;;;5.20;3.80;;;12.80;99.90;;;;;;5008193;28;20802;-56
2022/04/25 07:33:45;;;;;;;5.35;3.85;;;13.50;99.90;;;;;;5007593;28;20026;-55
2022/04/25 07:36:12;;;;;;;4.88;4.00;;;14.00;99.90;;;;;;5002735;28;20026;-55
2022/04/25 07:38:39;;;;;;;6.63;5.05;;;13.90;99.90;;;;;;5007125;28;20030;-56
2022/04/25 07:41:07;;;;;;;5.57;4.20;;;13.50;99.90;;;;;;5007444;28;20486;-58
2022/04/25 07:43:34;;;;;;;5.40;4.70;;;13.40;99.90;;;;;;5008531;28;20022;-57
2022/04/25 07:46:00;;;;;;;5.00;4.50;;;13.10;99.90;;;;;;5008934;28;20057;-57
2022/04/25 07:48:26;;;;;;;4.85;4.35;;;13.20;99.90;;;;;;5008222;28;20100;-54
2022/04/25 07:50:51;;;;;;;5.38;4.53;;;13.00;99.90;;;;;;5006073;28;20025;-57
2022/04/25 07:53:17;;;;;;;4.90;3.70;;;13.30;99.90;;;;;;5008692;28;20030;-56
2022/04/25 07:55:42;;;;;;;5.00;4.50;;;13.10;99.90;;;;;;5000704;28;20030;-56
2022/04/25 07:58:08;;;;;;;7.90;4.45;;;12.70;99.90;;;;;;5007889;28;20022;-55
2022/04/25 08:00:40;;;;;;;5.60;4.85;;;12.50;99.90;;;;;;4990396;28;20053;-54
2022/04/25 08:03:06;;;;;;;5.20;4.57;;;12.40;99.90;;;;;;5005085;28;20034;-58
2022/04/25 08:05:32;;;;;;;5.85;4.95;;;12.60;99.90;;;;;;5007789;28;20026;-57
2022/04/25 08:07:57;;;;;;;5.70;4.65;;;12.50;99.90;;;;;;5008369;28;20406;-57
2022/04/25 08:10:23;;;;;;;6.90;5.05;;;12.70;99.90;;;;;;5007018;28;20034;-54
2022/04/25 08:18:17;;;;;;;5.78;4.57;;;12.60;99.90;;;;;;5009547;28;20033;-57
2022/04/25 08:20:43;;;;;;;5.28;4.78;;;12.50;99.90;;;;;;5007918;28;20030;-53
2022/04/25 08:23:11;;;;;;;5.22;4.35;;;12.50;99.90;;;;;;5007902;28;20426;-53
2022/04/25 08:25:41;;;;;;;5.25;4.50;;;12.50;99.90;;;;;;5006911;28;20486;-58
2022/04/25 08:28:07;;;;;;;6.15;4.45;;;12.50;99.90;;;;;;5009731;28;20034;-56
2022/04/25 08:30:33;;;;;;;7.88;5.88;;;12.60;99.90;;;;;;5012320;28;20101;-57
2022/04/25 08:33:00;;;;;;;5.72;4.30;;;13.00;99.90;;;;;;5009249;28;20038;-56
2022/04/25 08:35:26;;;;;;;5.50;4.63;;;12.80;99.90;;;;;;5011616;28;20483;-53
2022/04/25 08:37:54;;;;;;;4.93;4.25;;;13.30;99.90;;;;;;5011183;28;20050;-55
2022/04/25 08:40:19;;;;;;;5.57;4.53;;;13.60;99.90;;;;;;5012645;28;20501;-57
2022/04/25 08:42:45;;;;;;;6.15;4.85;;;14.90;99.90;;;;;;5011540;28;20112;-58
2022/04/25 08:45:12;;;;;;;6.85;5.18;;;15.40;98.90;;;;;;5012100;28;20046;-54
2022/04/25 08:48:00;;;;;;;5.20;4.70;;;15.80;99.90;;;;;;5011688;28;20415;-58
2022/04/25 08:50:29;;;;;;;7.30;4.85;;;15.80;96.50;;;;;;5010970;28;20042;-54
2022/04/25 08:52:56;;;;;;;6.22;4.45;;;16.10;97.70;;;;;;5010936;28;20097;-57
2022/04/25 08:55:23;;;;;;;5.82;4.78;;;16.30;96.40;;;;;;5010230;28;20029;-57
2022/04/25 08:57:50;;;;;;;5.68;4.55;;;15.50;95.80;;;;;;5006775;28;20035;-57
2022/04/25 09:00:16;;;;;;;5.63;4.63;;;15.20;96.40;;;;;;4992932;28;20033;-56
2022/04/25 09:02:44;;;;;;;7.45;4.32;;;14.70;95.70;;;;;;5011280;28;20458;-57
2022/04/25 09:05:11;;;;;;;7.05;4.82;;;14.00;97.50;;;;;;5026200;28;20041;-58
2022/04/25 09:07:38;;;;;;;5.07;4.43;;;13.70;98.20;;;;;;5021881;28;20513;-54
2022/04/25 09:10:08;;;;;;;6.50;4.55;;;13.30;98.30;;;;;;5009649;28;20037;-55
2022/04/25 09:12:35;;;;;;;6.22;4.75;;;13.40;99.20;;;;;;5008170;28;20570;-55
2022/04/25 09:15:00;;;;;;;6.07;5.28;;;13.30;99.90;;;;;;5008455;28;22201;-57
2022/04/25 09:17:26;;;;;;;5.70;5.03;;;13.00;99.90;;;;;;5011498;28;20026;-56
2022/04/25 09:19:52;;;;;;;6.85;5.32;;;13.10;99.90;;;;;;5009559;28;20127;-54
2022/04/25 09:22:39;;;;;;;4.90;4.05;;;12.70;99.90;;;;;;5010963;28;20888;-51
2022/04/25 09:25:07;;;;;;;7.55;5.28;;;12.60;99.90;;;;;;5009498;28;20032;-55
2022/04/25 09:27:33;;;;;;;5.57;4.75;;;12.60;99.90;;;;;;5026799;28;20108;-54
2022/04/25 09:30:18;;;;;;;6.70;5.00;;;12.60;99.90;;;;;;5009860;28;20030;-54
2022/04/25 09:32:45;;;;;;;6.93;5.32;;;12.40;99.90;;;;;;5025094;28;20034;-58
2022/04/25 09:35:38;;;;;;;7.22;4.93;;;12.40;99.90;;;;;;5025363;28;20034;-54
2022/04/25 09:38:05;;;;;;;8.18;4.93;;;12.30;99.90;;;;;;5009383;28;20030;-55
2022/04/25 09:40:36;;;;;;;5.72;5.07;;;12.30;99.90;;;;;;5006769;28;20025;-56
2022/04/25 09:43:05;;;;;;;6.68;5.50;;;12.30;99.90;;;;;;5009640;28;20076;-53
2022/04/25 09:45:32;;;;;;;6.13;4.75;;;12.00;99.90;;;;;;5009655;28;20034;-57
2022/04/25 09:47:58;;;;;;;6.97;5.45;;;11.90;99.90;;;;;;5009837;28;20514;-56
2022/04/25 09:50:27;;;;;;;5.78;5.03;;;11.80;99.90;;;;;;5010445;28;20034;-55
2022/04/25 09:53:03;;;;;;;6.18;5.22;;;11.70;99.90;;;;;;5008282;28;20510;-55
2022/04/25 09:55:34;;;;;;;6.45;5.15;;;11.60;99.90;;;;;;5009969;28;20468;-54
2022/04/25 09:58:32;;;;;;;7.03;5.07;;;11.60;99.90;;;;;;5008664;28;20029;-55
2022/04/25 10:01:14;;;;;;;6.72;4.80;;;11.50;99.90;;;;;;4966786;28;20069;-56
2022/04/25 10:03:41;;;;;;;8.85;5.60;;;11.50;99.90;;;;;;5017940;28;20021;-56
2022/04/25 10:06:07;;;;;;;6.90;5.22;;;11.50;99.90;;;;;;5021855;28;20033;-56
2022/04/25 10:08:35;;;;;;;6.32;4.88;;;11.50;99.90;;;;;;5027844;28;20032;-57
2022/04/25 10:11:07;;;;;;;5.85;5.03;;;11.50;99.90;;;;;;5016692;28;20426;-55
2022/04/25 10:13:34;;;;;;;6.85;5.25;;;11.40;99.90;;;;;;5027027;28;20034;-57
2022/04/25 10:16:01;;;;;;;6.88;5.45;;;11.30;99.90;;;;;;5011842;28;20475;-58
2022/04/25 10:18:30;;;;;;;17.92;14.15;;;11.30;99.90;;;;;;5000748;28;20081;-52
2022/04/25 10:20:56;;;;;;;13.85;5.85;;;11.20;99.90;;;;;;5000281;28;20100;-57
2022/04/25 10:23:21;;;;;;;5.95;5.10;;;11.20;99.90;;;;;;5006905;28;20112;-58
2022/04/25 10:25:50;;;;;;;6.35;5.07;;;11.40;99.90;;;;;;5008241;28;20540;-55
2022/04/25 10:28:43;;;;;;;6.63;5.78;;;11.50;99.90;;;;;;5014824;28;20029;-53
2022/04/25 10:31:20;;;;;;;6.05;4.72;;;11.80;99.90;;;;;;5007716;28;20089;-59
2022/04/25 10:33:51;;;;;;;9.38;6.28;;;12.00;99.90;;;;;;5011172;28;20093;-56
2022/04/25 10:36:38;;;;;;;5.47;4.82;;;12.10;99.90;;;;;;5007500;28;20049;-59
2022/04/25 10:39:17;;;;;;;10.10;6.85;;;12.50;99.90;;;;;;5009626;28;20029;-55
2022/04/25 10:44:47;;;;;;;5.75;4.70;;;12.80;99.90;;;;;;5002999;28;20458;-57
2022/04/25 10:47:14;;;;;;;7.65;5.05;;;13.20;99.90;;;;;;5006793;28;20038;-57
2022/04/25 10:50:00;;;;;;;6.03;5.38;;;13.50;99.90;;;;;;5008705;28;20498;-58
2022/04/25 10:52:42;;;;;;;6.05;5.05;;;14.20;99.90;;;;;;5006306;28;20060;-59
2022/04/25 10:55:19;;;;;;;10.05;5.05;;;14.50;99.90;;;;;;5012889;28;20050;-59
2022/04/25 10:58:03;;;;;;;6.95;5.65;;;15.10;99.40;;;;;;5020570;28;20065;-59
2022/04/25 11:00:41;;;;;;;6.03;4.93;;;15.20;99.00;;;;;;5015055;28;20072;-53
2022/04/25 11:03:11;;;;;;;6.82;5.75;;;15.70;98.70;;;;;;5017426;28;20045;-59
2022/04/25 11:05:39;;;;;;;5.88;4.05;;;15.80;96.60;;;;;;4998766;28;20033;-59
2022/04/25 11:08:19;;;;;;;3.63;3.33;;;15.90;95.70;;;;;;5006391;28;20060;-56
2022/04/25 11:10:50;;;;;;;4.00;3.60;;;16.00;95.70;;;;;;5005166;28;20128;-56
2022/04/25 11:13:19;;;;;;;6.53;3.83;;;15.50;96.90;;;;;;5008683;28;20118;-57
2022/04/25 11:15:46;;;;;;;3.85;3.15;;;15.70;96.90;;;;;;5005062;28;20137;-54
2022/04/25 11:18:38;;;;;;;33.15;26.15;;;15.80;96.20;;;;;;5005161;28;20472;-52
2022/04/25 11:21:08;;;;;;;15.07;11.60;;;15.50;94.40;;;;;;5013014;28;20038;-59
2022/04/25 11:23:48;;;;;;;9.05;5.28;;;15.50;93.70;;;;;;5012407;28;20037;-56
2022/04/25 11:26:23;;;;;;;5.32;4.78;;;15.50;95.40;;;;;;5006162;28;20038;-59
2022/04/25 11:28:58;;;;;;;3.33;3.03;;;15.80;96.30;;;;;;4998953;28;20034;-57
2022/04/25 11:31:24;;;;;;;5.38;4.32;;;16.00;94.40;;;;;;5004103;28;20115;-52
2022/04/25 11:33:53;;;;;;;4.78;3.75;;;15.90;92.90;;;;;;5002941;28;20024;-56
2022/04/25 11:36:20;;;;;;;6.00;3.78;;;15.30;94.20;;;;;;5014050;28;20494;-58
2022/04/25 11:41:34;;;;;;;3.85;3.25;;;15.10;93.90;;;;;;5008424;28;20116;-56
2022/04/25 11:44:00;;;;;;;3.67;3.30;;;15.20;95.00;;;;;;5005994;28;20048;-57
2022/04/25 11:46:31;;;;;;;5.40;3.03;;;15.30;93.80;;;;;;5001053;28;20045;-56
2022/04/25 11:48:57;;;;;;;3.55;2.78;;;15.20;94.50;;;;;;5007595;28;20050;-55
2022/04/25 11:51:22;;;;;;;4.95;3.15;;;14.70;94.10;;;;;;5007475;28;20106;-57
2022/04/25 11:53:48;;;;;;;5.47;3.40;;;14.80;94.30;;;;;;5005564;28;20533;-57
2022/04/25 11:56:15;;;;;;;3.95;3.00;;;14.70;94.30;;;;;;5004320;28;20030;-55
2022/04/25 11:58:41;;;;;;;3.17;2.55;;;14.80;95.30;;;;;;5008179;28;20030;-56
2022/04/25 12:01:09;;;;;;;5.05;3.22;;;14.80;93.40;;;;;;5008341;28;20026;-55
2022/04/25 12:03:36;;;;;;;4.35;3.50;;;15.10;93.50;;;;;;5012615;28;20029;-57
2022/04/25 12:06:12;;;;;;;4.55;3.47;;;15.20;92.80;;;;;;5015811;28;20487;-56
2022/04/25 12:17:00;;;;;;;4.03;3.08;;;15.80;92.80;;;;;;5003948;28;20040;-57
2022/04/25 12:19:25;;;;;;;9.13;4.13;;;16.00;93.70;;;;;;5009686;28;20037;-52
2022/04/25 12:22:03;;;;;;;3.42;2.72;;;16.10;91.70;;;;;;5008561;28;20446;-57
2022/04/25 12:24:29;;;;;;;2.67;2.40;;;16.30;92.50;;;;;;5009809;28;20109;-55
2022/04/25 12:26:55;;;;;;;3.88;3.13;;;16.30;91.60;;;;;;5011444;28;20165;-55
2022/04/25 12:29:21;;;;;;;3.28;2.65;;;16.20;90.60;;;;;;5010268;28;20128;-58
2022/04/25 12:31:48;;;;;;;3.45;2.58;;;16.20;90.90;;;;;;5006712;28;20045;-57
2022/04/25 12:34:15;;;;;;;2.75;2.40;;;16.40;91.00;;;;;;5006867;28;20030;-57
2022/04/25 12:36:55;;;;;;;5.93;2.80;;;16.40;90.90;;;;;;5006429;28;20036;-56
2022/04/25 12:39:21;;;;;;;3.25;3.00;;;16.70;91.90;;;;;;5009572;28;20067;-53
2022/04/25 12:41:56;;;;;;;4.53;3.53;;;16.90;90.80;;;;;;5010476;28;20105;-54
2022/04/25 12:44:23;;;;;;;28.98;17.85;;;16.90;87.90;;;;;;5011652;28;20121;-56
2022/04/25 12:46:54;;;;;;;10.77;8.02;;;16.50;87.80;;;;;;5013940;28;20026;-56
2022/04/25 12:49:24;;;;;;;6.07;4.07;;;16.60;91.20;;;;;;5008769;28;20077;-51
2022/04/25 12:51:51;;;;;;;4.20;3.17;;;16.90;91.10;;;;;;5008062;28;20034;-57
2022/04/25 12:54:30;;;;;;;5.15;3.72;;;17.00;90.10;;;;;;5001999;28;20079;-55
2022/04/25 12:57:08;;;;;;;4.85;3.55;;;17.20;90.00;;;;;;5006023;28;20036;-56
2022/04/25 12:59:34;;;;;;;4.90;3.17;;;17.30;86.60;;;;;;5003636;28;20052;-55
2022/04/25 13:02:01;;;;;;;4.07;3.30;;;17.20;86.00;;;;;;4994008;28;20120;-57
2022/04/25 13:04:27;;;;;;;2.75;2.42;;;17.20;86.60;;;;;;5010510;28;20083;-57
2022/04/25 13:06:52;;;;;;;6.70;2.55;;;17.20;88.10;;;;;;5011282;28;20037;-57
2022/04/25 13:09:18;;;;;;;7.38;3.17;;;17.10;87.40;;;;;;5010049;28;20030;-58
2022/04/25 13:11:44;;;;;;;5.03;3.53;;;17.10;86.70;;;;;;5011262;28;20083;-57
2022/04/25 13:14:09;;;;;;;4.43;3.05;;;16.70;86.20;;;;;;5010108;28;20383;-58
2022/04/25 13:16:35;;;;;;;5.28;3.47;;;16.60;89.40;;;;;;5006297;28;20025;-58
2022/04/25 13:19:00;;;;;;;3.83;2.95;;;16.70;86.00;;;;;;5007980;28;20022;-57
2022/04/25 13:21:26;;;;;;;3.63;3.00;;;16.60;86.20;;;;;;5005292;28;20487;-57
2022/04/25 13:23:52;;;;;;;4.05;3.03;;;16.70;86.50;;;;;;5005112;28;20022;-58
2022/04/25 13:26:19;;;;;;;5.20;3.58;;;16.70;86.90;;;;;;5004986;28;20115;-57